createdAt,value
2016-12-08T12:55:32.083Z,46.7
2016-12-08T12:55:43.926Z,46.9
2016-12-08T12:57:55.885Z,47.8
2016-12-08T12:58:13.760Z,47.9
2016-12-08T13:00:45.714Z,49.3
2016-12-08T13:03:17.569Z,49.8
2016-12-08T13:05:49.548Z,49.7
2016-12-08T13:08:21.396Z,49.3
2016-12-08T13:10:53.237Z,49.6
2016-12-08T13:13:25.074Z,49.2
2016-12-08T13:15:56.930Z,49.3
2016-12-08T13:18:28.785Z,49.7
2016-12-08T13:21:00.641Z,48.9
2016-12-08T13:23:32.481Z,49.3
2016-12-08T13:26:19.358Z,49.5
2016-12-08T13:28:51.194Z,49.7
2016-12-08T13:31:23.076Z,50.3
2016-12-08T13:33:54.915Z,50.2
2016-12-08T13:36:26.769Z,50.2
2016-12-08T13:38:58.632Z,50
2016-12-08T13:41:30.455Z,50.2
2016-12-08T13:44:02.310Z,50.3
2016-12-08T13:46:34.171Z,50.2
2016-12-08T13:49:06.000Z,50.2
2016-12-08T13:51:37.848Z,50.2
2016-12-08T13:54:09.704Z,50.2
2016-12-08T13:56:41.535Z,50.2
2016-12-08T13:59:13.379Z,50.2
2016-12-08T14:01:45.205Z,50.2
2016-12-08T14:04:17.032Z,50.4
2016-12-08T14:06:48.867Z,50.4
2016-12-08T14:09:21.043Z,49.8
2016-12-08T14:11:52.901Z,49.5
2016-12-08T14:14:24.749Z,48.8
2016-12-08T14:16:56.585Z,48.9
2016-12-08T14:19:28.428Z,49.7
2016-12-08T14:22:00.271Z,50.2
2016-12-08T14:24:32.124Z,48.2
2016-12-08T14:27:03.971Z,46.6
2016-12-08T14:29:35.809Z,46.3
2016-12-08T14:32:07.647Z,46.1
2016-12-08T14:34:39.474Z,46.1
2016-12-08T14:37:11.314Z,46
2016-12-08T14:39:43.163Z,46
2016-12-08T14:42:14.999Z,46.1
2016-12-08T14:44:46.838Z,46
2016-12-08T14:47:18.727Z,46
2016-12-08T14:49:50.597Z,46
2016-12-08T14:52:22.475Z,46
2016-12-08T14:54:54.301Z,46.1
2016-12-08T14:57:26.143Z,46.9
2016-12-08T14:59:57.986Z,47.7
2016-12-08T15:02:29.835Z,48.2
2016-12-08T15:05:01.662Z,48.3
2016-12-08T15:07:33.497Z,48.7
2016-12-08T15:10:05.372Z,48.5
2016-12-08T15:12:37.207Z,48.6
2016-12-08T15:15:09.063Z,48.7
2016-12-08T15:17:40.905Z,48.6
2016-12-08T15:20:12.744Z,48.4
2016-12-08T15:22:44.590Z,48.2
2016-12-08T15:25:16.441Z,48.1
2016-12-08T15:27:48.271Z,47.8
2016-12-08T15:30:20.121Z,47.6
2016-12-08T15:32:51.967Z,47.5
2016-12-08T15:35:23.823Z,47.5
2016-12-08T15:37:55.680Z,47.5
2016-12-08T15:40:27.524Z,47.5
2016-12-08T15:42:59.370Z,47.5
2016-12-08T15:45:31.213Z,47.4
2016-12-08T15:48:03.063Z,47.5
2016-12-08T15:50:34.926Z,47.5
2016-12-08T15:53:06.780Z,47.5
2016-12-08T15:55:38.668Z,47.5
2016-12-08T15:58:10.507Z,47.4
2016-12-08T16:00:42.360Z,47.6
2016-12-08T16:03:14.210Z,47.7
2016-12-08T16:05:46.047Z,47.6
2016-12-08T16:08:17.893Z,47.8
2016-12-08T16:10:49.737Z,47.8
2016-12-08T16:13:21.589Z,47.8
2016-12-08T16:15:53.436Z,47.9
2016-12-08T16:18:25.286Z,47.9
2016-12-08T16:20:57.126Z,47.9
2016-12-08T16:23:28.985Z,47.9
2016-12-08T16:26:00.864Z,48
2016-12-08T16:28:32.697Z,48.1
2016-12-08T16:31:04.555Z,48.2
2016-12-08T16:33:36.397Z,48.1
2016-12-08T16:36:08.235Z,48.1
2016-12-08T16:38:40.094Z,48.2
2016-12-08T16:41:11.933Z,47.6
2016-12-08T16:43:43.847Z,47.2
2016-12-08T16:46:15.697Z,47.2
2016-12-08T16:48:47.533Z,47.2
2016-12-08T16:51:19.388Z,47.2
2016-12-08T16:53:51.237Z,47.2
2016-12-08T16:56:23.113Z,47.6
2016-12-08T16:58:54.984Z,47.5
2016-12-08T17:01:26.844Z,47.5
2016-12-08T17:03:58.698Z,47.8
2016-12-08T17:06:30.532Z,48.3
2016-12-08T17:09:02.374Z,48.8
2016-12-08T17:11:34.227Z,48.4
2016-12-08T17:14:06.075Z,48.8
2016-12-08T17:16:37.925Z,49.1
2016-12-08T17:19:09.777Z,49.4
2016-12-08T17:21:41.621Z,49.5
2016-12-08T17:24:13.479Z,49.5
2016-12-08T17:26:45.327Z,49.6
2016-12-08T17:29:17.158Z,49.6
2016-12-08T17:31:49.013Z,49.6
2016-12-08T17:34:20.869Z,49.6
2016-12-08T17:36:52.703Z,49.5
2016-12-08T17:39:24.550Z,49.4
2016-12-08T17:41:56.397Z,49.1
2016-12-08T17:44:28.235Z,48.7
2016-12-08T17:47:00.089Z,48.5
2016-12-08T17:49:31.931Z,48.3
2016-12-08T17:52:03.775Z,48.2
2016-12-08T17:54:35.628Z,48.1
2016-12-08T17:57:07.469Z,48
2016-12-08T17:59:39.313Z,47.9
2016-12-08T18:02:11.172Z,47.8
2016-12-08T18:04:43.017Z,47.8
2016-12-08T18:07:14.861Z,47.9
2016-12-08T18:09:46.709Z,47.9
2016-12-08T18:12:18.549Z,47.9
2016-12-08T18:14:50.387Z,48
2016-12-08T18:17:22.240Z,48
2016-12-08T18:19:54.098Z,47.9
2016-12-08T18:22:25.944Z,48
2016-12-08T18:24:57.805Z,48.2
2016-12-08T18:27:29.654Z,48.1
2016-12-08T18:30:01.500Z,48.2
2016-12-08T18:32:33.355Z,48.3
2016-12-08T18:35:05.200Z,48.3
2016-12-08T18:37:37.045Z,48.3
2016-12-08T18:40:08.882Z,48.4
2016-12-08T18:42:40.727Z,48.4
2016-12-08T18:45:12.580Z,48.4
2016-12-08T18:47:44.437Z,48.4
2016-12-08T18:50:16.282Z,48.4
2016-12-08T18:52:48.142Z,48.5
2016-12-08T18:55:19.990Z,48.5
2016-12-08T18:57:51.818Z,48.5
2016-12-08T19:00:23.674Z,48.5
2016-12-08T19:02:55.530Z,47.9
2016-12-08T19:05:27.372Z,47.1
2016-12-08T19:07:59.226Z,47.6
2016-12-08T19:10:31.074Z,47.9
2016-12-08T19:13:03.263Z,48.1
2016-12-08T19:15:35.129Z,48.3
2016-12-08T19:18:06.982Z,48.4
2016-12-08T19:20:38.827Z,48.4
2016-12-08T19:23:10.688Z,48.5
2016-12-08T19:25:42.525Z,48.5
2016-12-08T19:28:14.372Z,48.4
2016-12-08T19:30:46.230Z,48.5
2016-12-08T19:33:18.063Z,48.5
2016-12-08T19:35:49.928Z,48.5
2016-12-08T19:38:21.778Z,48.5
2016-12-08T19:40:53.613Z,48.4
2016-12-08T19:43:25.468Z,48.4
2016-12-08T19:45:57.315Z,48.4
2016-12-08T19:48:29.154Z,48.6
2016-12-08T19:51:00.987Z,48.5
2016-12-08T19:53:32.836Z,48.5
2016-12-08T19:56:05.032Z,48.6
2016-12-08T19:58:36.887Z,48.5
2016-12-08T20:01:08.723Z,48.6
2016-12-08T20:03:40.571Z,48.5
2016-12-08T20:06:12.411Z,48.5
2016-12-08T20:08:44.269Z,48.5
2016-12-08T20:11:16.123Z,48.6
2016-12-08T20:13:47.962Z,48.5
2016-12-08T20:16:19.814Z,48.5
2016-12-08T20:18:51.659Z,48.5
2016-12-08T20:21:23.504Z,48.4
2016-12-08T20:23:55.392Z,48.4
2016-12-08T20:26:27.243Z,48.4
2016-12-08T20:28:59.442Z,48.4
2016-12-08T20:31:31.304Z,48.4
2016-12-08T20:34:03.168Z,48.4
2016-12-08T20:36:35.010Z,48.4
2016-12-08T20:39:06.865Z,48.4
2016-12-08T20:41:38.715Z,48.3
2016-12-08T20:44:10.563Z,48.2
2016-12-08T20:46:42.421Z,48.2
2016-12-08T20:49:14.261Z,48.3
2016-12-08T20:51:46.106Z,48.3
2016-12-08T20:54:17.960Z,48.2
2016-12-08T20:56:49.803Z,48.3
2016-12-08T20:59:21.662Z,48.3
2016-12-08T21:01:53.519Z,48.3
2016-12-08T21:04:25.362Z,48.3
2016-12-08T21:06:57.203Z,48.2
2016-12-08T21:09:29.050Z,48.2
2016-12-08T21:12:00.909Z,48.2
2016-12-08T21:14:32.760Z,48.2
2016-12-08T21:17:04.596Z,48.2
2016-12-08T21:19:36.450Z,48.1
2016-12-08T21:22:08.301Z,48.2
2016-12-08T21:24:40.152Z,48.2
2016-12-08T21:27:12.033Z,48.3
2016-12-08T21:29:43.864Z,48.2
2016-12-08T21:32:15.717Z,48.3
2016-12-08T21:34:47.595Z,48.2
2016-12-08T21:37:19.455Z,48.2
2016-12-08T21:39:51.316Z,48.2
2016-12-08T21:42:23.156Z,48.2
2016-12-08T21:44:54.994Z,48.3
2016-12-08T21:47:26.876Z,48.2
2016-12-08T21:49:58.736Z,48.3
2016-12-08T21:52:30.568Z,48.3
2016-12-08T21:55:02.443Z,48.2
2016-12-08T21:57:34.273Z,48.1
2016-12-08T22:00:06.125Z,48.1
2016-12-08T22:02:38.325Z,48.1
2016-12-08T22:05:10.151Z,48.1
2016-12-08T22:07:42.012Z,48.1
2016-12-08T22:10:13.874Z,48.1
2016-12-08T22:12:45.703Z,48.1
2016-12-08T22:15:17.563Z,48.1
2016-12-08T22:17:49.389Z,48.1
2016-12-08T22:20:21.232Z,48.1
2016-12-08T22:22:53.104Z,48.1
2016-12-08T22:25:24.960Z,48.1
2016-12-08T22:27:56.811Z,48.1
2016-12-08T22:30:28.651Z,48.2
2016-12-08T22:33:00.499Z,48.1
2016-12-08T22:35:32.363Z,48.1
2016-12-08T22:38:04.209Z,48.2
2016-12-08T22:40:36.054Z,48.3
2016-12-08T22:43:07.897Z,48.3
2016-12-08T22:45:39.743Z,48.3
2016-12-08T22:48:11.596Z,48.4
2016-12-08T22:50:43.439Z,48.6
2016-12-08T22:53:15.282Z,48.6
2016-12-08T22:55:47.138Z,48.6
2016-12-08T22:58:18.980Z,48.6
2016-12-08T23:00:50.835Z,48.7
2016-12-08T23:03:22.685Z,48.7
2016-12-08T23:05:54.523Z,48.7
2016-12-08T23:08:26.356Z,48.7
2016-12-08T23:10:58.215Z,48.6
2016-12-08T23:13:30.055Z,48.6
2016-12-08T23:16:01.902Z,48.5
2016-12-08T23:18:33.741Z,48.4
2016-12-08T23:21:05.594Z,48.4
2016-12-08T23:23:37.444Z,48.4
2016-12-08T23:26:09.298Z,48.4
2016-12-08T23:28:41.137Z,48.3
2016-12-08T23:31:13.004Z,48.2
2016-12-08T23:33:44.857Z,48.2
2016-12-08T23:36:16.691Z,48.2
2016-12-08T23:38:48.545Z,48.3
2016-12-08T23:41:20.378Z,48.2
2016-12-08T23:43:52.222Z,48.2
2016-12-08T23:46:24.080Z,48.2
2016-12-08T23:48:55.918Z,48.3
2016-12-08T23:51:27.760Z,48.2
2016-12-08T23:53:59.614Z,48.2
2016-12-08T23:56:31.475Z,48.3
2016-12-08T23:59:03.331Z,48.2
